createdAt,value
2023-11-26T00:02:10.206Z,0.50
2023-11-26T00:04:37.024Z,0.50
2023-11-26T00:07:03.908Z,0.60
2023-11-26T00:09:34.482Z,0.60
2023-11-26T00:12:01.185Z,0.60
2023-11-26T00:14:27.995Z,0.60
2023-11-26T00:16:54.942Z,0.60
2023-11-26T00:19:21.850Z,0.60
2023-11-26T00:21:48.551Z,0.60
2023-11-26T00:24:15.286Z,0.50
2023-11-26T00:26:42.083Z,0.50
2023-11-26T00:29:08.935Z,0.50
2023-11-26T00:31:35.624Z,0.50
2023-11-26T00:34:02.406Z,0.50
2023-11-26T00:36:29.213Z,0.40
2023-11-26T00:38:55.892Z,0.40
2023-11-26T00:41:22.678Z,0.40
2023-11-26T00:43:49.455Z,0.40
2023-11-26T00:46:16.334Z,0.30
2023-11-26T00:48:43.069Z,0.30
2023-11-26T00:51:17.503Z,0.30
2023-11-26T00:53:44.226Z,0.40
2023-11-26T00:56:10.934Z,0.40
2023-11-26T00:58:37.703Z,0.40
2023-11-26T01:01:04.582Z,0.40
2023-11-26T01:03:31.478Z,0.30
2023-11-26T01:05:58.278Z,0.40
2023-11-26T01:08:25.045Z,0.40
2023-11-26T01:10:52.000Z,0.30
2023-11-26T01:13:18.747Z,0.40
2023-11-26T01:15:45.563Z,0.40
2023-11-26T01:18:12.403Z,0.40
2023-11-26T01:20:39.281Z,0.40
2023-11-26T01:23:06.060Z,0.40
2023-11-26T01:25:32.801Z,0.40
2023-11-26T01:27:59.497Z,0.30
2023-11-26T01:30:26.221Z,0.30
2023-11-26T01:32:53.031Z,0.30
2023-11-26T01:35:19.787Z,0.30
2023-11-26T01:37:46.557Z,0.30
2023-11-26T01:40:13.308Z,0.30
2023-11-26T01:42:39.985Z,0.30
2023-11-26T01:45:07.131Z,0.20
2023-11-26T01:47:34.401Z,0.20
2023-11-26T01:50:01.389Z,0.20
2023-11-26T01:52:28.452Z,0.20
2023-11-26T01:54:55.299Z,0.20
2023-11-26T01:57:22.226Z,0.30
2023-11-26T01:59:49.288Z,0.20
2023-11-26T02:02:18.362Z,0.30
2023-11-26T02:04:45.208Z,0.30
2023-11-26T02:07:13.353Z,0.20
2023-11-26T02:09:40.114Z,0.10
2023-11-26T02:12:10.749Z,0.20
2023-11-26T02:14:37.610Z,0.20
2023-11-26T02:17:04.632Z,0.20
2023-11-26T02:19:36.235Z,0.20
2023-11-26T02:22:03.535Z,0.20
2023-11-26T02:24:31.635Z,0.30
2023-11-26T02:26:58.648Z,0.20
2023-11-26T02:29:25.759Z,0.20
2023-11-26T02:31:52.545Z,0.20
2023-11-26T02:34:19.311Z,0.20
2023-11-26T02:36:46.264Z,0.20
2023-11-26T02:39:13.008Z,0.10
2023-11-26T02:41:39.788Z,0.10
2023-11-26T02:44:06.782Z,0.20
2023-11-26T02:46:33.541Z,0.20
2023-11-26T02:49:00.263Z,0.20
2023-11-26T02:51:26.983Z,0.10
2023-11-26T02:53:53.683Z,0.10
2023-11-26T02:56:20.415Z,0.10
2023-11-26T02:58:47.201Z,0.10
2023-11-26T03:01:20.366Z,0.10
2023-11-26T03:03:47.261Z,0.10
2023-11-26T03:06:14.598Z,0.00
2023-11-26T03:08:41.279Z,0.00
2023-11-26T03:11:08.036Z,0.00
2023-11-26T03:13:34.746Z,0.00
2023-11-26T03:16:03.487Z,0.00
2023-11-26T03:18:30.271Z,0.00
2023-11-26T03:20:57.035Z,0.00
2023-11-26T03:23:24.081Z,0.00
2023-11-26T03:25:51.741Z,0.00
2023-11-26T03:28:21.812Z,0.00
2023-11-26T03:30:48.608Z,0.00
2023-11-26T03:33:15.459Z,0.00
2023-11-26T03:35:42.603Z,0.00
2023-11-26T03:38:09.473Z,0.10
2023-11-26T03:40:36.809Z,0.10
2023-11-26T03:43:03.701Z,0.10
2023-11-26T03:45:30.471Z,0.10
2023-11-26T03:47:57.263Z,0.10
2023-11-26T03:50:24.848Z,0.10
2023-11-26T03:52:51.747Z,0.20
2023-11-26T03:55:18.712Z,0.20
2023-11-26T03:57:45.511Z,0.20
2023-11-26T04:00:12.798Z,0.20
2023-11-26T04:02:40.009Z,0.20
2023-11-26T04:05:08.272Z,0.20
2023-11-26T04:07:35.373Z,0.10
2023-11-26T04:10:02.143Z,0.10
2023-11-26T04:12:28.905Z,0.10
2023-11-26T04:15:02.509Z,0.10
2023-11-26T04:17:30.932Z,0.10
2023-11-26T04:19:57.693Z,0.20
2023-11-26T04:22:25.494Z,0.20
2023-11-26T04:24:53.000Z,0.20
2023-11-26T04:27:21.055Z,0.20
2023-11-26T04:29:48.311Z,0.20
2023-11-26T04:32:15.729Z,0.20
2023-11-26T04:34:42.465Z,0.20
2023-11-26T04:37:09.963Z,0.30
2023-11-26T04:39:37.445Z,0.30
2023-11-26T04:42:04.606Z,0.30
2023-11-26T04:44:31.617Z,0.30
2023-11-26T04:46:58.485Z,0.30
2023-11-26T04:49:25.468Z,0.30
2023-11-26T04:51:52.318Z,0.30
2023-11-26T04:54:19.445Z,0.30
2023-11-26T04:56:47.975Z,0.40
2023-11-26T04:59:14.690Z,0.40
2023-11-26T05:01:41.531Z,0.40
2023-11-26T05:04:08.400Z,0.40
2023-11-26T05:06:35.216Z,0.30
2023-11-26T05:09:01.956Z,0.30
2023-11-26T05:11:31.959Z,0.30
2023-11-26T05:13:58.724Z,0.30
2023-11-26T05:16:25.505Z,0.30
2023-11-26T05:18:52.245Z,0.30
2023-11-26T05:21:18.980Z,0.30
2023-11-26T05:23:45.710Z,0.30
2023-11-26T05:26:15.758Z,0.30
2023-11-26T05:28:42.573Z,0.30
2023-11-26T05:31:10.975Z,0.30
2023-11-26T05:33:37.699Z,0.30
2023-11-26T05:36:05.336Z,0.30
2023-11-26T05:38:32.555Z,0.30
2023-11-26T05:40:59.449Z,0.20
2023-11-26T05:43:26.683Z,0.20
2023-11-26T05:45:53.510Z,0.20
2023-11-26T05:48:20.442Z,0.30
2023-11-26T05:50:47.259Z,0.20
2023-11-26T05:53:14.063Z,0.20
2023-11-26T05:55:40.826Z,0.20
2023-11-26T05:58:07.649Z,0.20
2023-11-26T06:00:34.457Z,0.10
2023-11-26T06:03:01.276Z,0.10
2023-11-26T06:05:28.065Z,0.10
2023-11-26T06:07:54.921Z,0.10
2023-11-26T06:10:21.648Z,0.10
2023-11-26T06:12:48.404Z,0.10
2023-11-26T06:15:15.264Z,0.10
2023-11-26T06:17:42.011Z,0.00
2023-11-26T06:20:09.118Z,0.10
2023-11-26T06:22:35.887Z,0.10
2023-11-26T06:25:03.042Z,0.00
2023-11-26T06:27:29.774Z,-0.10
2023-11-26T06:29:56.589Z,-0.10
2023-11-26T06:32:23.421Z,-0.10
2023-11-26T06:34:50.165Z,-0.10
2023-11-26T06:37:16.872Z,-0.10
2023-11-26T06:39:43.644Z,-0.10
2023-11-26T06:42:10.453Z,-0.20
2023-11-26T06:44:37.321Z,-0.20
2023-11-26T06:47:04.177Z,-0.20
2023-11-26T06:49:30.896Z,-0.20
2023-11-26T06:51:57.632Z,-0.20
2023-11-26T06:54:24.833Z,-0.30
2023-11-26T06:56:51.574Z,-0.20
2023-11-26T06:59:18.347Z,-0.30
2023-11-26T07:01:45.070Z,-0.30
2023-11-26T07:04:12.037Z,-0.40
2023-11-26T07:06:41.961Z,-0.40
2023-11-26T07:09:09.494Z,-0.40
2023-11-26T07:11:36.507Z,-0.50
2023-11-26T07:14:03.650Z,-0.50
2023-11-26T07:16:30.355Z,-0.60
2023-11-26T07:18:57.139Z,-0.60
2023-11-26T07:21:25.572Z,-0.60
2023-11-26T07:23:52.273Z,-0.60
2023-11-26T07:26:19.005Z,-0.60
2023-11-26T07:28:45.739Z,-0.60
2023-11-26T07:31:16.755Z,-0.70
2023-11-26T07:33:43.663Z,-0.70
2023-11-26T07:36:16.962Z,-0.70
2023-11-26T07:38:43.962Z,-0.60
2023-11-26T07:41:11.474Z,-0.70
2023-11-26T07:43:41.884Z,-0.70
2023-11-26T07:46:09.658Z,-0.70
2023-11-26T07:48:37.096Z,-0.70
2023-11-26T07:51:04.433Z,-0.70
2023-11-26T07:53:34.861Z,-0.70
2023-11-26T07:56:01.852Z,-0.70
2023-11-26T07:58:29.885Z,-0.70
2023-11-26T08:00:56.669Z,-0.70
2023-11-26T08:03:23.499Z,-0.70
2023-11-26T08:05:51.070Z,-0.80
2023-11-26T08:08:17.960Z,-0.70
2023-11-26T08:10:44.696Z,-0.70
2023-11-26T08:13:12.731Z,-0.70
2023-11-26T08:15:40.234Z,-0.80
2023-11-26T08:18:07.174Z,-0.80
2023-11-26T08:20:34.353Z,-0.70
2023-11-26T08:23:01.102Z,-0.80
2023-11-26T08:25:27.929Z,-0.80
2023-11-26T08:27:55.103Z,-0.70
2023-11-26T08:30:21.889Z,-0.80
2023-11-26T08:32:48.674Z,-0.70
2023-11-26T08:35:15.567Z,-0.70
2023-11-26T08:37:42.921Z,-0.70
2023-11-26T08:40:10.734Z,-0.70
2023-11-26T08:42:37.649Z,-0.70
2023-11-26T08:45:04.804Z,-0.60
2023-11-26T08:47:31.891Z,-0.60
2023-11-26T08:49:58.674Z,-0.50
2023-11-26T08:52:25.457Z,-0.50
2023-11-26T08:54:52.356Z,-0.50
2023-11-26T08:57:19.125Z,-0.50
2023-11-26T08:59:45.869Z,-0.40
2023-11-26T09:02:12.869Z,-0.50
2023-11-26T09:04:39.751Z,-0.50
2023-11-26T09:07:06.453Z,-0.50
2023-11-26T09:09:33.204Z,-0.40
2023-11-26T09:11:59.999Z,-0.40
2023-11-26T09:14:26.777Z,-0.40
2023-11-26T09:16:53.527Z,-0.40
2023-11-26T09:19:20.297Z,-0.40
2023-11-26T09:21:47.061Z,-0.40
2023-11-26T09:24:13.817Z,-0.40
2023-11-26T09:26:43.909Z,-0.30
2023-11-26T09:29:28.139Z,-0.30
2023-11-26T09:32:02.970Z,-0.30
2023-11-26T09:34:32.678Z,-0.30
2023-11-26T09:37:19.850Z,-0.30
2023-11-26T09:40:02.056Z,-0.30
2023-11-26T09:42:42.508Z,-0.30
2023-11-26T09:45:37.069Z,-0.20
2023-11-26T09:48:09.217Z,-0.10
2023-11-26T09:50:36.953Z,-0.10
2023-11-26T09:53:04.366Z,0.00
2023-11-26T09:55:41.132Z,0.00
2023-11-26T09:58:08.050Z,0.00
2023-11-26T10:00:34.962Z,0.00
2023-11-26T10:03:05.024Z,0.00
2023-11-26T10:05:31.898Z,-0.10
2023-11-26T10:07:58.685Z,-0.10
2023-11-26T10:10:25.496Z,-0.10
2023-11-26T10:13:02.501Z,-0.10
2023-11-26T10:15:31.612Z,-0.10
2023-11-26T10:17:59.754Z,-0.10
2023-11-26T10:20:27.056Z,-0.10
2023-11-26T10:22:54.755Z,-0.10
2023-11-26T10:25:21.737Z,-0.10
2023-11-26T10:27:48.572Z,-0.10
2023-11-26T10:30:25.049Z,-0.10
2023-11-26T10:32:58.984Z,-0.10
2023-11-26T10:35:25.973Z,-0.10
2023-11-26T10:38:08.672Z,-0.10
2023-11-26T10:40:35.425Z,-0.10
2023-11-26T10:43:06.429Z,0.00
2023-11-26T10:45:33.709Z,0.00
2023-11-26T10:48:08.981Z,0.10
2023-11-26T10:51:02.045Z,0.20
2023-11-26T10:54:06.232Z,0.10
2023-11-26T10:56:40.448Z,0.20
2023-11-26T10:59:17.878Z,0.20
2023-11-26T11:01:47.878Z,0.20
2023-11-26T11:04:16.032Z,0.20
2023-11-26T11:06:44.226Z,0.20
2023-11-26T11:09:12.042Z,0.20
2023-11-26T11:11:50.763Z,0.20
2023-11-26T11:14:17.784Z,0.30
2023-11-26T11:16:44.612Z,0.40
2023-11-26T11:19:11.344Z,0.50
2023-11-26T11:21:48.108Z,0.50
2023-11-26T11:24:21.203Z,0.50
2023-11-26T11:26:48.123Z,0.50
2023-11-26T11:29:32.688Z,0.60
2023-11-26T11:31:59.645Z,0.50
2023-11-26T11:34:26.398Z,0.60
2023-11-26T11:36:55.438Z,0.70
2023-11-26T11:39:24.295Z,0.60
2023-11-26T11:42:03.196Z,0.60
2023-11-26T11:44:37.920Z,0.60
2023-11-26T11:47:06.154Z,0.70
2023-11-26T11:49:48.205Z,0.70
2023-11-26T11:52:15.950Z,0.70
2023-11-26T11:55:00.750Z,0.80
2023-11-26T11:57:44.867Z,0.80
2023-11-26T12:00:12.144Z,1.00
2023-11-26T12:02:40.215Z,1.00
2023-11-26T12:05:21.340Z,1.10
2023-11-26T12:07:48.363Z,0.90
2023-11-26T12:10:31.112Z,0.90
2023-11-26T12:13:05.418Z,1.00
2023-11-26T12:15:32.426Z,1.10
2023-11-26T12:18:00.046Z,1.10
2023-11-26T12:20:26.997Z,1.10
2023-11-26T12:22:54.176Z,1.20
2023-11-26T12:25:21.186Z,1.20
2023-11-26T12:27:48.365Z,1.20
2023-11-26T12:30:15.611Z,1.30
2023-11-26T12:32:43.282Z,1.20
2023-11-26T12:35:13.650Z,1.20
2023-11-26T12:37:42.814Z,1.30
2023-11-26T12:40:12.255Z,1.40
2023-11-26T12:42:39.669Z,1.60
2023-11-26T12:45:10.083Z,1.60
2023-11-26T12:47:55.588Z,1.70
2023-11-26T12:50:23.614Z,1.80
2023-11-26T12:52:51.640Z,1.80
2023-11-26T12:55:19.275Z,1.90
2023-11-26T12:57:46.567Z,1.80
2023-11-26T13:00:14.875Z,1.90
2023-11-26T13:02:46.038Z,1.90
2023-11-26T13:05:25.992Z,1.90
2023-11-26T13:07:52.748Z,2.00
2023-11-26T13:10:20.023Z,1.90
2023-11-26T13:12:46.925Z,1.90
2023-11-26T13:15:14.216Z,1.70
2023-11-26T13:17:41.642Z,1.70
2023-11-26T13:20:09.103Z,1.60
2023-11-26T13:22:35.889Z,1.60
2023-11-26T13:25:02.699Z,1.50
2023-11-26T13:27:29.588Z,1.50
2023-11-26T13:29:56.369Z,1.50
2023-11-26T13:32:23.197Z,1.50
2023-11-26T13:34:52.435Z,1.50
2023-11-26T13:37:19.262Z,1.50
2023-11-26T13:39:46.066Z,1.50
2023-11-26T13:42:12.865Z,1.50
2023-11-26T13:44:39.647Z,1.50
2023-11-26T13:47:06.527Z,1.40
2023-11-26T13:53:59.091Z,1.40
2023-11-26T14:00:02.493Z,1.30
2023-11-26T14:02:37.568Z,1.30
2023-11-26T14:05:04.814Z,1.20
2023-11-26T14:07:33.098Z,1.20
2023-11-26T14:10:05.377Z,1.20
2023-11-26T14:12:47.735Z,1.20
2023-11-26T14:15:33.343Z,1.30
2023-11-26T14:18:00.810Z,1.30
2023-11-26T14:20:58.582Z,1.20
2023-11-26T14:23:30.751Z,1.10
2023-11-26T14:26:12.571Z,1.10
2023-11-26T14:35:00.761Z,1.00
2023-11-26T14:44:44.930Z,1.00
2023-11-26T14:47:11.809Z,1.00
2023-11-26T14:49:38.584Z,1.00
2023-11-26T14:52:06.397Z,0.90
2023-11-26T14:54:34.526Z,0.80
2023-11-26T14:57:02.591Z,0.80
2023-11-26T14:59:29.561Z,0.80
2023-11-26T15:01:56.550Z,0.80
2023-11-26T15:04:23.468Z,0.70
2023-11-26T15:06:50.484Z,0.80
2023-11-26T15:09:17.312Z,0.70
2023-11-26T15:11:44.064Z,0.70
2023-11-26T15:14:10.864Z,0.70
2023-11-26T15:16:37.898Z,0.70
2023-11-26T15:19:04.886Z,0.70
2023-11-26T15:21:32.082Z,0.60
2023-11-26T15:23:59.009Z,0.60
2023-11-26T15:26:25.814Z,0.50
2023-11-26T15:28:53.179Z,0.50
2023-11-26T15:31:20.193Z,0.50
2023-11-26T15:33:47.219Z,0.50
2023-11-26T15:36:17.710Z,0.40
2023-11-26T15:38:44.765Z,0.40
2023-11-26T15:41:19.130Z,0.40
2023-11-26T15:43:46.395Z,0.40
2023-11-26T15:46:20.003Z,0.40
2023-11-26T15:48:48.140Z,0.40
2023-11-26T15:51:15.030Z,0.40
2023-11-26T15:53:42.003Z,0.40
2023-11-26T15:56:18.856Z,0.50
2023-11-26T15:58:46.909Z,0.40
2023-11-26T16:01:14.894Z,0.50
2023-11-26T16:03:42.557Z,0.50
2023-11-26T16:06:11.742Z,0.50
2023-11-26T16:08:39.245Z,0.50
2023-11-26T16:11:07.329Z,0.50
2023-11-26T16:13:34.081Z,0.60
2023-11-26T16:16:01.199Z,0.60
2023-11-26T16:18:29.056Z,0.50
2023-11-26T16:20:58.190Z,0.50
2023-11-26T16:23:25.170Z,0.50
2023-11-26T16:25:54.135Z,0.50
2023-11-26T16:28:20.862Z,0.50
2023-11-26T16:30:47.635Z,0.50
2023-11-26T16:33:14.502Z,0.50
2023-11-26T16:35:44.399Z,0.50
2023-11-26T16:38:11.614Z,0.50
2023-11-26T16:40:38.443Z,0.50
2023-11-26T16:43:05.303Z,0.50
2023-11-26T16:45:32.025Z,0.50
2023-11-26T16:47:58.818Z,0.60
2023-11-26T16:50:25.604Z,0.60
2023-11-26T16:52:52.559Z,0.60
2023-11-26T16:55:19.774Z,0.60
2023-11-26T16:57:46.480Z,0.60
2023-11-26T17:00:13.720Z,0.60
2023-11-26T17:02:41.257Z,0.60
2023-11-26T17:05:08.287Z,0.60
2023-11-26T17:07:35.074Z,0.50
2023-11-26T17:10:01.893Z,0.60
2023-11-26T17:12:28.995Z,0.50
2023-11-26T17:14:55.724Z,0.60
2023-11-26T17:17:22.541Z,0.60
2023-11-26T17:19:50.169Z,0.50
2023-11-26T17:22:17.893Z,0.50
2023-11-26T17:24:44.679Z,0.50
2023-11-26T17:27:11.397Z,0.50
2023-11-26T17:29:38.215Z,0.60
2023-11-26T17:32:05.517Z,0.50
2023-11-26T17:34:32.235Z,0.60
2023-11-26T17:36:59.166Z,0.60
2023-11-26T17:39:27.576Z,0.60
2023-11-26T17:41:54.983Z,0.50
2023-11-26T17:44:21.755Z,0.50
2023-11-26T17:46:48.612Z,0.50
2023-11-26T17:49:15.460Z,0.50
2023-11-26T17:51:42.318Z,0.50
2023-11-26T17:54:09.162Z,0.50
2023-11-26T17:56:36.219Z,0.50
2023-11-26T17:59:03.905Z,0.60
2023-11-26T18:01:32.896Z,0.60
2023-11-26T18:03:59.879Z,0.60
2023-11-26T18:06:26.852Z,0.60
2023-11-26T18:08:55.515Z,0.60
2023-11-26T18:11:22.570Z,0.60
2023-11-26T18:13:49.380Z,0.60
2023-11-26T18:16:16.112Z,0.60
2023-11-26T18:18:42.830Z,0.70
2023-11-26T18:21:09.597Z,0.60
2023-11-26T18:23:36.369Z,0.60
2023-11-26T18:26:09.901Z,0.60
2023-11-26T18:28:36.714Z,0.60
2023-11-26T18:31:03.645Z,0.50
2023-11-26T18:33:30.441Z,0.50
2023-11-26T18:35:57.215Z,0.50
2023-11-26T18:38:24.761Z,0.60
2023-11-26T18:40:51.492Z,0.60
2023-11-26T18:43:18.217Z,0.60
2023-11-26T18:45:45.008Z,0.60
2023-11-26T18:48:11.949Z,0.70
2023-11-26T18:50:38.994Z,0.70
2023-11-26T18:53:06.473Z,0.70
2023-11-26T18:55:37.560Z,0.70
2023-11-26T18:58:04.402Z,0.70
2023-11-26T19:00:31.338Z,0.60
2023-11-26T19:02:58.214Z,0.70
2023-11-26T19:05:25.014Z,0.70
2023-11-26T19:07:51.812Z,0.70
2023-11-26T19:10:18.767Z,0.60
2023-11-26T19:12:47.280Z,0.70
2023-11-26T19:15:14.311Z,0.70
2023-11-26T19:17:41.212Z,0.70
2023-11-26T19:20:11.350Z,0.70
2023-11-26T19:22:38.194Z,0.70
2023-11-26T19:25:05.453Z,0.70
2023-11-26T19:27:32.364Z,0.70
2023-11-26T19:29:59.185Z,0.70
2023-11-26T19:32:26.578Z,0.60
2023-11-26T19:34:53.395Z,0.60
2023-11-26T19:37:20.237Z,0.60
2023-11-26T19:39:47.178Z,0.60
2023-11-26T19:42:16.421Z,0.70
2023-11-26T19:44:43.483Z,0.70
2023-11-26T19:47:10.227Z,0.60
2023-11-26T19:49:36.943Z,0.60
2023-11-26T19:52:03.903Z,0.60
2023-11-26T19:54:30.715Z,0.60
2023-11-26T19:56:57.422Z,0.60
2023-11-26T19:59:24.824Z,0.60
2023-11-26T20:01:54.494Z,0.60
2023-11-26T20:04:21.330Z,0.60
2023-11-26T20:06:48.089Z,0.60
2023-11-26T20:09:14.895Z,0.70
2023-11-26T20:11:41.744Z,0.70
2023-11-26T20:14:08.532Z,0.70
2023-11-26T20:16:35.261Z,0.70
2023-11-26T20:19:02.048Z,0.70
2023-11-26T20:21:28.865Z,0.70
2023-11-26T20:23:55.656Z,0.80
2023-11-26T20:26:23.184Z,0.80
2023-11-26T20:28:50.612Z,0.80
2023-11-26T20:31:17.538Z,0.80
2023-11-26T20:33:44.585Z,0.80
2023-11-26T20:36:21.649Z,0.80
2023-11-26T20:38:51.029Z,0.80
2023-11-26T20:41:19.330Z,0.80
2023-11-26T20:43:46.180Z,0.80
2023-11-26T20:46:20.293Z,0.80
2023-11-26T20:48:47.244Z,0.80
2023-11-26T20:51:21.013Z,0.70
2023-11-26T20:53:48.284Z,0.80
2023-11-26T20:56:28.197Z,0.70
2023-11-26T20:58:56.208Z,0.70
2023-11-26T21:01:23.100Z,0.80
2023-11-26T21:03:50.040Z,0.80
2023-11-26T21:06:17.062Z,0.80
2023-11-26T21:08:43.771Z,0.80
2023-11-26T21:11:12.186Z,0.80
2023-11-26T21:13:40.225Z,0.90
2023-11-26T21:16:07.542Z,0.90
2023-11-26T21:18:34.357Z,0.90
2023-11-26T21:21:04.335Z,0.90
2023-11-26T21:23:31.169Z,0.90
2023-11-26T21:25:58.011Z,0.90
2023-11-26T21:28:24.835Z,0.80
2023-11-26T21:30:51.564Z,0.80
2023-11-26T21:33:20.723Z,0.70
2023-11-26T21:35:47.552Z,0.70
2023-11-26T21:38:14.229Z,0.70
2023-11-26T21:40:45.389Z,0.70
2023-11-26T21:43:16.621Z,0.70
2023-11-26T21:45:43.493Z,0.70
2023-11-26T21:48:20.581Z,0.70
2023-11-26T21:50:47.731Z,0.70
2023-11-26T21:53:14.667Z,0.70
2023-11-26T21:55:41.402Z,0.70
2023-11-26T21:58:08.147Z,0.80
2023-11-26T22:00:34.899Z,0.80
2023-11-26T22:03:01.728Z,0.80
2023-11-26T22:05:28.529Z,0.90
2023-11-26T22:07:55.229Z,0.80
2023-11-26T22:10:21.911Z,0.80
2023-11-26T22:12:48.702Z,0.80
2023-11-26T22:15:15.583Z,0.70
2023-11-26T22:17:42.403Z,0.70
2023-11-26T22:20:09.848Z,0.70
2023-11-26T22:22:36.563Z,0.70
2023-11-26T22:25:03.481Z,0.70
2023-11-26T22:27:30.246Z,0.70
2023-11-26T22:29:56.954Z,0.70
2023-11-26T22:32:23.678Z,0.60
2023-11-26T22:34:50.436Z,0.60
2023-11-26T22:37:17.151Z,0.50
2023-11-26T22:39:43.926Z,0.50
2023-11-26T22:42:10.645Z,0.50
2023-11-26T22:44:37.312Z,0.40
2023-11-26T22:47:04.119Z,0.40
2023-11-26T22:49:30.840Z,0.40
2023-11-26T22:51:57.562Z,0.40
2023-11-26T22:54:24.798Z,0.30
2023-11-26T22:56:51.469Z,0.30
2023-11-26T22:59:18.120Z,0.30
2023-11-26T23:01:45.036Z,0.30
2023-11-26T23:04:11.873Z,0.40
2023-11-26T23:06:38.635Z,0.40
2023-11-26T23:09:05.394Z,0.40
2023-11-26T23:11:32.076Z,0.40
2023-11-26T23:13:58.797Z,0.40
2023-11-26T23:16:25.630Z,0.40
2023-11-26T23:18:52.419Z,0.40
2023-11-26T23:21:19.191Z,0.40
2023-11-26T23:23:51.772Z,0.40
2023-11-26T23:26:21.085Z,0.40
2023-11-26T23:28:48.031Z,0.50
2023-11-26T23:31:19.031Z,0.50
2023-11-26T23:33:46.911Z,0.50
2023-11-26T23:36:14.993Z,0.50
2023-11-26T23:38:41.871Z,0.50
2023-11-26T23:41:11.816Z,0.50
2023-11-26T23:43:39.792Z,0.50
2023-11-26T23:46:06.987Z,0.60
2023-11-26T23:48:33.768Z,0.60
2023-11-26T23:51:00.466Z,0.60
2023-11-26T23:53:27.197Z,0.60
2023-11-26T23:55:54.791Z,0.60
2023-11-26T23:58:21.541Z,0.60
